Time,TemperatureF,DewpointF,PressureIn,WindDirection,WindDirectionDegrees,WindSpeedMPH,WindSpeedGustMPH,Humidity,HourlyPrecipIn,Conditions,Clouds,dailyrainin,SoftwareType,DateUTC
2013-03-12 00:00:00,60.3,53.4,29.99,SE,140,3.0,5.0,78,0.00,,,0.00,Wunderground v.1.15,2013-03-12 04:00:00,
2013-03-12 00:05:00,60.3,53.4,29.99,SSE,149,4.0,7.0,78,0.00,,,0.00,Wunderground v.1.15,2013-03-12 04:05:00,
2013-03-12 00:15:00,60.4,53.5,29.98,ESE,120,4.0,6.0,78,0.00,,,0.00,Wunderground v.1.15,2013-03-12 04:15:00,
2013-03-12 00:20:00,60.3,53.4,29.98,SE,132,3.0,3.0,78,0.00,,,0.00,Wunderground v.1.15,2013-03-12 04:20:00,
2013-03-12 00:25:00,60.1,53.2,29.97,SE,135,2.0,3.0,78,0.00,,,0.00,Wunderground v.1.15,2013-03-12 04:25:00,
2013-03-12 00:35:00,60.2,53.7,29.98,ESE,109,5.0,7.0,79,0.00,,,0.00,Wunderground v.1.15,2013-03-12 04:35:00,
2013-03-12 00:40:00,60.1,53.6,29.97,ESE,111,5.0,5.0,79,0.00,,,0.00,Wunderground v.1.15,2013-03-12 04:40:00,
2013-03-12 00:45:00,60.1,53.6,29.97,SE,128,5.0,5.0,79,0.00,,,0.00,Wunderground v.1.15,2013-03-12 04:45:00,
2013-03-12 00:55:00,60.0,53.8,29.97,SE,140,4.0,5.0,80,0.00,,,0.00,Wunderground v.1.15,2013-03-12 04:55:00,
2013-03-12 01:00:00,60.0,53.8,29.97,SE,144,4.0,4.0,80,0.00,,,0.00,Wunderground v.1.15,2013-03-12 05:00:00,
2013-03-12 01:05:00,59.9,53.7,29.97,SE,125,4.0,4.0,80,0.00,,,0.00,Wunderground v.1.15,2013-03-12 05:05:00,
2013-03-12 01:15:00,59.8,54.3,29.95,ESE,114,4.0,5.0,82,0.00,,,0.00,Wunderground v.1.15,2013-03-12 05:15:00,
2013-03-12 01:25:00,59.6,54.4,29.97,SE,142,6.0,6.0,83,0.00,,,0.00,Wunderground v.1.15,2013-03-12 05:25:00,
2013-03-12 01:35:00,59.1,55.2,29.96,SE,129,5.0,5.0,87,0.00,,,0.00,Wunderground v.1.15,2013-03-12 05:35:00,
2013-03-12 01:45:00,58.4,55.2,29.95,SE,134,5.0,5.0,89,0.00,,,0.00,Wunderground v.1.15,2013-03-12 05:45:00,
2013-03-12 01:55:00,58.1,55.2,29.95,SE,128,3.0,4.0,90,0.00,,,0.00,Wunderground v.1.15,2013-03-12 05:55:00,
2013-03-12 02:05:00,57.8,55.2,29.95,SE,134,2.0,2.0,91,0.00,,,0.00,Wunderground v.1.15,2013-03-12 06:05:00,
2013-03-12 02:15:00,57.7,55.1,29.94,SE,129,2.0,6.0,91,0.00,,,0.00,Wunderground v.1.15,2013-03-12 06:15:00,
2013-03-12 02:20:00,57.7,55.1,29.94,SE,132,3.0,5.0,91,0.00,,,0.00,Wunderground v.1.15,2013-03-12 06:20:00,
2013-03-12 02:30:00,57.7,55.1,29.93,ESE,114,3.0,7.0,91,0.00,,,0.00,Wunderground v.1.15,2013-03-12 06:30:00,
2013-03-12 02:40:00,57.8,55.2,29.92,SE,128,4.0,6.0,91,0.00,,,0.00,Wunderground v.1.15,2013-03-12 06:40:00,
2013-03-12 02:50:00,57.9,55.3,29.91,ESE,113,6.0,6.0,91,0.00,,,0.00,Wunderground v.1.15,2013-03-12 06:50:00,
2013-03-12 03:00:00,58.0,55.4,29.91,SE,135,5.0,8.0,91,0.00,,,0.00,Wunderground v.1.15,2013-03-12 07:00:00,
2013-03-12 03:05:00,58.0,55.4,29.91,SE,136,5.0,8.0,91,0.00,,,0.00,Wunderground v.1.15,2013-03-12 07:05:00,
2013-03-12 03:15:00,58.2,55.9,29.90,SE,136,5.0,13.0,92,0.00,,,0.00,Wunderground v.1.15,2013-03-12 07:15:00,
2013-03-12 03:25:00,58.7,56.4,29.90,SE,137,8.0,10.0,92,0.00,,,0.01,Wunderground v.1.15,2013-03-12 07:25:00,
2013-03-12 03:35:00,58.5,56.2,29.90,SE,134,7.0,7.0,92,0.08,,,0.02,Wunderground v.1.15,2013-03-12 07:35:00,
2013-03-12 03:45:00,58.3,56.3,29.89,SE,134,6.0,7.0,93,0.06,,,0.03,Wunderground v.1.15,2013-03-12 07:45:00,
2013-03-12 03:50:00,58.2,56.2,29.89,South,181,5.0,5.0,93,0.12,,,0.04,Wunderground v.1.15,2013-03-12 07:50:00,
2013-03-12 04:00:00,58.3,56.6,29.88,ESE,111,6.0,9.0,94,0.06,,,0.05,Wunderground v.1.15,2013-03-12 08:00:00,
2013-03-12 04:05:00,58.4,56.7,29.88,SE,140,7.0,9.0,94,0.11,,,0.06,Wunderground v.1.15,2013-03-12 08:05:00,
2013-03-12 04:15:00,58.4,56.7,29.88,SE,139,5.0,8.0,94,0.05,,,0.07,Wunderground v.1.15,2013-03-12 08:15:00,
2013-03-12 04:25:00,58.4,56.7,29.87,SE,141,6.0,6.0,94,0.08,,,0.08,Wunderground v.1.15,2013-03-12 08:25:00,
2013-03-12 04:35:00,58.6,57.2,29.88,SE,141,5.0,8.0,95,0.04,,,0.08,Wunderground v.1.15,2013-03-12 08:35:00,
2013-03-12 04:45:00,58.8,57.4,29.87,SE,144,4.0,6.0,95,0.00,,,0.08,Wunderground v.1.15,2013-03-12 08:45:00,
2013-03-12 04:55:00,59.1,57.7,29.86,SE,138,5.0,8.0,95,0.00,,,0.08,Wunderground v.1.15,2013-03-12 08:55:00,
2013-03-12 05:05:00,59.7,58.3,29.87,SE,138,6.0,7.0,95,0.00,,,0.08,Wunderground v.1.15,2013-03-12 09:05:00,
2013-03-12 05:15:00,60.5,59.1,29.86,East,98,9.0,10.0,95,0.00,,,0.08,Wunderground v.1.15,2013-03-12 09:15:00,
2013-03-12 05:25:00,60.7,59.0,29.86,SSE,152,8.0,14.0,94,0.00,,,0.09,Wunderground v.1.15,2013-03-12 09:25:00,
2013-03-12 05:35:00,60.9,59.2,29.85,South,174,8.0,8.0,94,0.00,,,0.09,Wunderground v.1.15,2013-03-12 09:35:00,
2013-03-12 05:45:00,61.0,59.0,29.85,SE,133,8.0,15.0,93,0.00,,,0.10,Wunderground v.1.15,2013-03-12 09:45:00,
2013-03-12 05:55:00,60.9,58.9,29.84,SE,143,7.0,11.0,93,0.00,,,0.10,Wunderground v.1.15,2013-03-12 09:55:00,
2013-03-12 06:05:00,60.8,59.1,29.84,SSE,148,8.0,8.0,94,0.04,,,0.11,Wunderground v.1.15,2013-03-12 10:05:00,
2013-03-12 06:15:00,60.8,59.1,29.85,SE,142,6.0,10.0,94,0.07,,,0.12,Wunderground v.1.15,2013-03-12 10:15:00,
2013-03-12 06:25:00,60.6,58.9,29.84,SE,136,7.0,9.0,94,0.04,,,0.13,Wunderground v.1.15,2013-03-12 10:25:00,
2013-03-12 06:30:00,60.5,58.8,29.84,SE,140,6.0,9.0,94,0.11,,,0.14,Wunderground v.1.15,2013-03-12 10:30:00,
2013-03-12 06:40:00,60.4,59.0,29.84,SSE,165,7.0,8.0,95,0.05,,,0.15,Wunderground v.1.15,2013-03-12 10:40:00,
2013-03-12 06:50:00,60.3,58.9,29.84,SE,144,5.0,5.0,95,0.08,,,0.17,Wunderground v.1.15,2013-03-12 10:50:00,
2013-03-12 07:00:00,60.3,58.9,29.83,SE,130,6.0,8.0,95,0.09,,,0.18,Wunderground v.1.15,2013-03-12 11:00:00,
2013-03-12 07:05:00,60.4,59.0,29.83,South,182,5.0,8.0,95,0.16,,,0.20,Wunderground v.1.15,2013-03-12 11:05:00,
2013-03-12 07:15:00,60.4,59.0,29.83,SSE,148,5.0,9.0,95,0.07,,,0.21,Wunderground v.1.15,2013-03-12 11:15:00,
2013-03-12 07:20:00,60.4,59.0,29.83,SE,128,5.0,11.0,95,0.15,,,0.22,Wunderground v.1.15,2013-03-12 11:20:00,
2013-03-12 07:30:00,60.6,59.2,29.82,SE,124,7.0,7.0,95,0.17,,,0.24,Wunderground v.1.15,2013-03-12 11:30:00,
2013-03-12 07:40:00,60.7,59.3,29.82,SE,135,5.0,6.0,95,0.15,,,0.26,Wunderground v.1.15,2013-03-12 11:40:00,
2013-03-12 07:45:00,60.8,59.4,29.82,SSE,165,6.0,6.0,95,0.10,,,0.26,Wunderground v.1.15,2013-03-12 11:45:00,
2013-03-12 07:55:00,60.8,59.4,29.82,SE,137,7.0,12.0,95,0.14,,,0.28,Wunderground v.1.15,2013-03-12 11:55:00,
2013-03-12 08:05:00,60.8,59.4,29.82,South,172,6.0,7.0,95,0.06,,,0.29,Wunderground v.1.15,2013-03-12 12:05:00,
2013-03-12 08:15:00,60.8,59.4,29.82,SSW,194,4.0,8.0,95,0.09,,,0.30,Wunderground v.1.15,2013-03-12 12:15:00,
2013-03-12 08:25:00,60.9,59.5,29.82,SSE,161,6.0,6.0,95,0.05,,,0.31,Wunderground v.1.15,2013-03-12 12:25:00,
2013-03-12 08:35:00,61.0,59.6,29.82,SSE,167,6.0,14.0,95,0.06,,,0.32,Wunderground v.1.15,2013-03-12 12:35:00,
2013-03-12 08:40:00,61.1,59.7,29.82,South,179,6.0,8.0,95,0.04,,,0.33,Wunderground v.1.15,2013-03-12 12:40:00,
2013-03-12 08:50:00,61.3,59.9,29.82,SE,142,9.0,9.0,95,0.10,,,0.34,Wunderground v.1.15,2013-03-12 12:50:00,
2013-03-12 09:00:00,62.1,60.1,29.82,SSW,200,13.0,13.0,93,0.04,,,0.34,Wunderground v.1.15,2013-03-12 13:00:00,
2013-03-12 09:05:00,62.2,60.2,29.82,SSE,157,11.0,13.0,93,0.00,,,0.34,Wunderground v.1.15,2013-03-12 13:05:00,
2013-03-12 09:15:00,62.2,59.8,29.82,South,191,11.0,14.0,92,0.00,,,0.35,Wunderground v.1.15,2013-03-12 13:15:00,
2013-03-12 09:25:00,62.2,59.8,29.83,South,188,8.0,11.0,92,0.00,,,0.35,Wunderground v.1.15,2013-03-12 13:25:00,
2013-03-12 09:30:00,62.2,59.8,29.82,SSW,202,9.0,9.0,92,0.00,,,0.35,Wunderground v.1.15,2013-03-12 13:30:00,
2013-03-12 09:40:00,62.5,59.8,29.83,SSE,167,11.0,11.0,91,0.00,,,0.35,Wunderground v.1.15,2013-03-12 13:40:00,
2013-03-12 09:50:00,62.4,60.0,29.84,South,190,10.0,10.0,92,0.00,,,0.35,Wunderground v.1.15,2013-03-12 13:50:00,
2013-03-12 10:00:00,62.6,60.2,29.84,SSW,207,11.0,11.0,92,0.00,,,0.35,Wunderground v.1.15,2013-03-12 14:00:00,
2013-03-12 10:05:00,62.7,60.3,29.84,SSW,209,10.0,11.0,92,0.00,,,0.35,Wunderground v.1.15,2013-03-12 14:05:00,
2013-03-12 10:15:00,62.9,60.5,29.84,SW,216,9.0,14.0,92,0.00,,,0.35,Wunderground v.1.15,2013-03-12 14:15:00,
2013-03-12 10:25:00,62.8,60.4,29.84,SSW,207,8.0,9.0,92,0.00,,,0.36,Wunderground v.1.15,2013-03-12 14:25:00,
2013-03-12 10:35:00,62.7,60.6,29.84,SSW,200,7.0,8.0,93,0.00,,,0.36,Wunderground v.1.15,2013-03-12 14:35:00,
2013-03-12 10:45:00,62.6,60.5,29.84,SSW,212,7.0,8.0,93,0.00,,,0.36,Wunderground v.1.15,2013-03-12 14:45:00,
2013-03-12 10:55:00,62.8,61.0,29.84,South,190,7.0,11.0,94,0.00,,,0.37,Wunderground v.1.15,2013-03-12 14:55:00,
2013-03-12 11:05:00,62.9,60.8,29.83,SSW,205,8.0,8.0,93,0.00,,,0.37,Wunderground v.1.15,2013-03-12 15:05:00,
2013-03-12 11:15:00,63.2,61.1,29.83,SW,219,5.0,7.0,93,0.00,,,0.37,Wunderground v.1.15,2013-03-12 15:15:00,
2013-03-12 11:25:00,63.0,60.9,29.83,South,188,7.0,8.0,93,0.00,,,0.37,Wunderground v.1.15,2013-03-12 15:25:00,
2013-03-12 11:35:00,63.0,60.9,29.84,SSW,205,6.0,7.0,93,0.00,,,0.37,Wunderground v.1.15,2013-03-12 15:35:00,
2013-03-12 11:40:00,63.1,61.0,29.84,SW,215,6.0,7.0,93,0.00,,,0.37,Wunderground v.1.15,2013-03-12 15:40:00,
2013-03-12 11:50:00,63.3,61.5,29.84,SW,221,6.0,6.0,94,0.00,,,0.37,Wunderground v.1.15,2013-03-12 15:50:00,
2013-03-12 11:55:00,63.7,61.6,29.84,SSW,213,6.0,6.0,93,0.00,,,0.37,Wunderground v.1.15,2013-03-12 15:55:00,
2013-03-12 12:05:00,63.9,61.5,29.84,SW,234,8.0,8.0,92,0.00,,,0.37,Wunderground v.1.15,2013-03-12 16:05:00,
2013-03-12 12:15:00,64.1,61.4,29.84,WSW,250,7.0,8.0,91,0.00,,,0.37,Wunderground v.1.15,2013-03-12 16:15:00,
2013-03-12 12:25:00,64.5,61.8,29.84,SSW,197,6.0,7.0,91,0.00,,,0.37,Wunderground v.1.15,2013-03-12 16:25:00,
2013-03-12 12:35:00,65.0,62.0,29.83,SW,230,8.0,8.0,90,0.00,,,0.37,Wunderground v.1.15,2013-03-12 16:35:00,
2013-03-12 12:45:00,65.0,61.7,29.83,SW,219,7.0,7.0,89,0.00,,,0.37,Wunderground v.1.15,2013-03-12 16:45:00,
2013-03-12 12:55:00,65.0,62.0,29.83,SSW,211,7.0,10.0,90,0.00,,,0.38,Wunderground v.1.15,2013-03-12 16:55:00,
2013-03-12 13:05:00,64.9,61.6,29.83,SW,227,8.0,8.0,89,0.00,,,0.38,Wunderground v.1.15,2013-03-12 17:05:00,
2013-03-12 13:15:00,65.4,61.8,29.83,SW,223,7.0,8.0,88,0.00,,,0.38,Wunderground v.1.15,2013-03-12 17:15:00,
2013-03-12 13:25:00,66.7,62.4,29.82,SW,222,10.0,11.0,86,0.00,,,0.38,Wunderground v.1.15,2013-03-12 17:25:00,
2013-03-12 13:35:00,67.4,62.1,29.82,SW,215,9.0,13.0,83,0.00,,,0.38,Wunderground v.1.15,2013-03-12 17:35:00,
2013-03-12 13:45:00,67.2,61.9,29.81,SW,216,10.0,16.0,83,0.00,,,0.38,Wunderground v.1.15,2013-03-12 17:45:00,
2013-03-12 13:55:00,68.1,62.4,29.80,WSW,237,11.0,12.0,82,0.00,,,0.38,Wunderground v.1.15,2013-03-12 17:55:00,
2013-03-12 14:05:00,68.4,62.0,29.80,WSW,238,8.0,11.0,80,0.00,,,0.38,Wunderground v.1.15,2013-03-12 18:05:00,
2013-03-12 14:15:00,68.3,60.8,29.79,West,264,9.0,9.0,77,0.00,,,0.38,Wunderground v.1.15,2013-03-12 18:15:00,
2013-03-12 14:25:00,67.7,60.6,29.79,WSW,253,8.0,9.0,78,0.00,,,0.38,Wunderground v.1.15,2013-03-12 18:25:00,
2013-03-12 14:35:00,68.4,60.9,29.78,West,267,8.0,8.0,77,0.00,,,0.38,Wunderground v.1.15,2013-03-12 18:35:00,
2013-03-12 14:40:00,69.0,61.1,29.78,SW,225,7.0,12.0,76,0.00,,,0.38,Wunderground v.1.15,2013-03-12 18:40:00,
2013-03-12 14:50:00,69.9,59.7,29.77,WSW,255,7.0,10.0,70,0.00,,,0.38,Wunderground v.1.15,2013-03-12 18:50:00,
2013-03-12 15:00:00,70.5,61.4,29.77,NW,306,9.0,9.0,73,0.00,,,0.38,Wunderground v.1.15,2013-03-12 19:00:00,
2013-03-12 15:05:00,68.8,60.9,29.77,WNW,287,8.0,9.0,76,0.00,,,0.38,Wunderground v.1.15,2013-03-12 19:05:00,
2013-03-12 15:15:00,68.4,61.3,29.77,NW,311,7.0,9.0,78,0.00,,,0.38,Wunderground v.1.15,2013-03-12 19:15:00,
2013-03-12 15:20:00,68.0,59.8,29.77,NW,322,7.0,10.0,75,0.00,,,0.38,Wunderground v.1.15,2013-03-12 19:20:00,
2013-03-12 15:30:00,68.1,61.7,29.77,WNW,289,6.0,8.0,80,0.00,,,0.38,Wunderground v.1.15,2013-03-12 19:30:00,
2013-03-12 15:35:00,69.0,60.7,29.77,NW,304,4.0,8.0,75,0.00,,,0.38,Wunderground v.1.15,2013-03-12 19:35:00,
2013-03-12 15:45:00,68.4,59.8,29.77,NNW,332,7.0,13.0,74,0.00,,,0.38,Wunderground v.1.15,2013-03-12 19:45:00,
2013-03-12 15:50:00,69.1,60.5,29.77,NW,311,6.0,6.0,74,0.00,,,0.38,Wunderground v.1.15,2013-03-12 19:50:00,
2013-03-12 16:00:00,68.9,59.9,29.77,WNW,288,7.0,8.0,73,0.00,,,0.38,Wunderground v.1.15,2013-03-12 20:00:00,
2013-03-12 16:05:00,68.7,58.9,29.77,West,271,8.0,8.0,71,0.00,,,0.38,Wunderground v.1.15,2013-03-12 20:05:00,
2013-03-12 16:15:00,67.7,58.7,29.77,WNW,298,8.0,8.0,73,0.00,,,0.38,Wunderground v.1.15,2013-03-12 20:15:00,
2013-03-12 16:25:00,68.3,58.9,29.77,WNW,296,6.0,8.0,72,0.00,,,0.38,Wunderground v.1.15,2013-03-12 20:25:00,
2013-03-12 16:35:00,69.1,59.3,29.78,NW,317,7.0,9.0,71,0.00,,,0.38,Wunderground v.1.15,2013-03-12 20:35:00,
2013-03-12 16:45:00,69.8,58.8,29.78,WNW,296,7.0,8.0,68,0.00,,,0.38,Wunderground v.1.15,2013-03-12 20:45:00,
2013-03-12 16:50:00,70.1,59.5,29.78,NW,310,6.0,9.0,69,0.00,,,0.38,Wunderground v.1.15,2013-03-12 20:50:00,
2013-03-12 16:55:00,70.3,59.2,29.78,WNW,291,6.0,11.0,68,0.00,,,0.38,Wunderground v.1.15,2013-03-12 20:55:00,
2013-03-12 17:05:00,69.5,58.5,29.78,NW,314,7.0,11.0,68,0.00,,,0.38,Wunderground v.1.15,2013-03-12 21:05:00,
2013-03-12 17:15:00,69.4,57.5,29.79,NNW,330,8.0,11.0,66,0.00,,,0.38,Wunderground v.1.15,2013-03-12 21:15:00,
2013-03-12 17:20:00,69.2,57.4,29.79,NW,311,9.0,9.0,66,0.00,,,0.38,Wunderground v.1.15,2013-03-12 21:20:00,
2013-03-12 17:25:00,68.8,57.8,29.79,West,260,9.0,10.0,68,0.00,,,0.38,Wunderground v.1.15,2013-03-12 21:25:00,
2013-03-12 17:30:00,68.8,57.0,29.79,West,262,9.0,9.0,66,0.00,,,0.38,Wunderground v.1.15,2013-03-12 21:30:00,
2013-03-12 17:40:00,68.5,56.7,29.79,NW,306,7.0,7.0,66,0.00,,,0.38,Wunderground v.1.15,2013-03-12 21:40:00,
2013-03-12 17:50:00,68.5,56.3,29.80,WNW,289,5.0,5.0,65,0.00,,,0.38,Wunderground v.1.15,2013-03-12 21:50:00,
2013-03-12 18:00:00,67.6,55.8,29.80,WNW,300,5.0,8.0,66,0.00,,,0.38,Wunderground v.1.15,2013-03-12 22:00:00,
2013-03-12 18:05:00,67.9,55.3,29.80,NW,312,8.0,11.0,64,0.00,,,0.38,Wunderground v.1.15,2013-03-12 22:05:00,
2013-03-12 18:15:00,67.9,55.7,29.80,WNW,302,6.0,9.0,65,0.00,,,0.38,Wunderground v.1.15,2013-03-12 22:15:00,
2013-03-12 18:20:00,67.6,54.6,29.80,NW,310,7.0,7.0,63,0.00,,,0.38,Wunderground v.1.15,2013-03-12 22:20:00,
2013-03-12 18:25:00,67.4,54.4,29.81,NW,306,7.0,7.0,63,0.00,,,0.38,Wunderground v.1.15,2013-03-12 22:25:00,
2013-03-12 18:35:00,66.8,54.7,29.81,WNW,296,4.0,6.0,65,0.00,,,0.38,Wunderground v.1.15,2013-03-12 22:35:00,
2013-03-12 18:45:00,66.5,53.9,29.82,NW,321,4.0,6.0,64,0.00,,,0.38,Wunderground v.1.15,2013-03-12 22:45:00,
2013-03-12 18:55:00,65.7,53.6,29.82,WNW,302,4.0,5.0,65,0.00,,,0.38,Wunderground v.1.15,2013-03-12 22:55:00,
2013-03-12 19:00:00,65.4,53.7,29.82,WNW,302,2.0,2.0,66,0.00,,,0.38,Wunderground v.1.15,2013-03-12 23:00:00,
2013-03-12 19:05:00,64.8,53.6,29.83,NW,304,2.0,2.0,67,0.00,,,0.38,Wunderground v.1.15,2013-03-12 23:05:00,
2013-03-12 19:15:00,64.1,52.5,29.83,NNW,330,0.0,4.0,66,0.00,,,0.38,Wunderground v.1.15,2013-03-12 23:15:00,
2013-03-12 19:25:00,63.4,52.7,29.84,NNW,327,1.0,1.0,68,0.00,,,0.38,Wunderground v.1.15,2013-03-12 23:25:00,
2013-03-12 19:30:00,62.8,52.9,29.84,NW,315,0.0,0.0,70,0.00,,,0.38,Wunderground v.1.15,2013-03-12 23:30:00,
2013-03-12 19:35:00,62.3,52.0,29.84,NW,312,1.0,1.0,69,0.00,,,0.38,Wunderground v.1.15,2013-03-12 23:35:00,
2013-03-12 19:40:00,61.9,52.0,29.85,WNW,302,1.0,7.0,70,0.00,,,0.38,Wunderground v.1.15,2013-03-12 23:40:00,
2013-03-12 19:45:00,61.8,51.5,29.85,NW,309,2.0,7.0,69,0.00,,,0.38,Wunderground v.1.15,2013-03-12 23:45:00,
2013-03-12 19:55:00,61.7,51.0,29.85,NNW,333,2.0,7.0,68,0.00,,,0.38,Wunderground v.1.15,2013-03-12 23:55:00,
2013-03-12 20:00:00,61.4,50.7,29.86,NW,309,2.0,2.0,68,0.00,,,0.38,Wunderground v.1.15,2013-03-13 00:00:00,
2013-03-12 20:05:00,61.0,50.4,29.86,NW,309,1.0,2.0,68,0.00,,,0.38,Wunderground v.1.15,2013-03-13 00:05:00,
2013-03-12 20:15:00,60.6,49.2,29.87,NNW,331,1.0,1.0,66,0.00,,,0.38,Wunderground v.1.15,2013-03-13 00:15:00,
2013-03-12 20:25:00,59.8,48.8,29.87,NNW,331,0.0,1.0,67,0.00,,,0.38,Wunderground v.1.15,2013-03-13 00:25:00,
2013-03-12 20:35:00,59.1,47.7,29.88,NNW,329,0.0,0.0,66,0.00,,,0.38,Wunderground v.1.15,2013-03-13 00:35:00,
2013-03-12 20:45:00,58.3,45.3,29.89,NW,306,2.0,7.0,62,0.00,,,0.38,Wunderground v.1.15,2013-03-13 00:45:00,
2013-03-12 20:50:00,58.2,45.7,29.89,WNW,295,3.0,8.0,63,0.00,,,0.38,Wunderground v.1.15,2013-03-13 00:50:00,
2013-03-12 20:55:00,58.0,45.0,29.89,WNW,294,1.0,8.0,62,0.00,,,0.38,Wunderground v.1.15,2013-03-13 00:55:00,
2013-03-12 21:05:00,57.4,43.2,29.90,NNW,334,1.0,5.0,59,0.00,,,0.38,Wunderground v.1.15,2013-03-13 01:05:00,
2013-03-12 21:15:00,57.0,42.8,29.90,NW,308,3.0,9.0,59,0.00,,,0.38,Wunderground v.1.15,2013-03-13 01:15:00,
2013-03-12 21:25:00,56.6,42.4,29.91,NW,318,2.0,5.0,59,0.00,,,0.38,Wunderground v.1.15,2013-03-13 01:25:00,
2013-03-12 21:30:00,56.4,42.7,29.91,NW,323,2.0,2.0,60,0.00,,,0.38,Wunderground v.1.15,2013-03-13 01:30:00,
2013-03-12 21:35:00,56.0,41.9,29.91,NW,317,2.0,2.0,59,0.00,,,0.38,Wunderground v.1.15,2013-03-13 01:35:00,
2013-03-12 21:40:00,55.8,41.7,29.92,NW,323,3.0,3.0,59,0.00,,,0.38,Wunderground v.1.15,2013-03-13 01:40:00,
2013-03-12 21:45:00,55.6,41.5,29.92,NW,313,3.0,5.0,59,0.00,,,0.38,Wunderground v.1.15,2013-03-13 01:45:00,
2013-03-12 21:55:00,55.2,41.5,29.92,WNW,301,4.0,5.0,60,0.00,,,0.38,Wunderground v.1.15,2013-03-13 01:55:00,
2013-03-12 22:00:00,54.9,41.3,29.92,NW,318,2.0,2.0,60,0.00,,,0.38,Wunderground v.1.15,2013-03-13 02:00:00,
2013-03-12 22:05:00,54.6,41.4,29.93,NW,320,1.0,2.0,61,0.00,,,0.38,Wunderground v.1.15,2013-03-13 02:05:00,
2013-03-12 22:15:00,53.9,41.2,29.93,NW,323,1.0,1.0,62,0.00,,,0.38,Wunderground v.1.15,2013-03-13 02:15:00,
2013-03-12 22:25:00,53.2,40.9,29.93,NW,306,1.0,4.0,63,0.00,,,0.38,Wunderground v.1.15,2013-03-13 02:25:00,
2013-03-12 22:30:00,53.1,40.8,29.94,NW,304,2.0,7.0,63,0.00,,,0.38,Wunderground v.1.15,2013-03-13 02:30:00,
2013-03-12 22:40:00,52.8,40.5,29.94,NW,313,2.0,2.0,63,0.00,,,0.38,Wunderground v.1.15,2013-03-13 02:40:00,
2013-03-12 22:50:00,52.5,39.4,29.94,NW,307,3.0,3.0,61,0.00,,,0.38,Wunderground v.1.15,2013-03-13 02:50:00,
2013-03-12 23:00:00,52.2,39.1,29.95,WNW,286,3.0,5.0,61,0.00,,,0.38,Wunderground v.1.15,2013-03-13 03:00:00,
2013-03-12 23:05:00,52.0,38.5,29.95,NW,321,3.0,5.0,60,0.00,,,0.38,Wunderground v.1.15,2013-03-13 03:05:00,
2013-03-12 23:15:00,51.6,38.2,29.95,WNW,294,4.0,5.0,60,0.00,,,0.38,Wunderground v.1.15,2013-03-13 03:15:00,
2013-03-12 23:25:00,51.3,37.9,29.96,NW,309,5.0,5.0,60,0.00,,,0.38,Wunderground v.1.15,2013-03-13 03:25:00,
2013-03-12 23:35:00,51.1,37.7,29.96,WNW,301,4.0,5.0,60,0.00,,,0.38,Wunderground v.1.15,2013-03-13 03:35:00,
2013-03-12 23:40:00,50.9,37.5,29.96,NNW,348,4.0,4.0,60,0.00,,,0.38,Wunderground v.1.15,2013-03-13 03:40:00,
2013-03-12 23:50:00,50.6,37.2,29.96,WNW,296,3.0,4.0,60,0.00,,,0.38,Wunderground v.1.15,2013-03-13 03:50:00,